Main page
METAR-TAF:

METAR-TAF

Airports :

Rabat–Salé Airport

Rabat, Morocco

latitude: 34-03N, longitude: 006-46W, elevation: 84 m

Current weather observation

The report was made 27 minutes ago, at 05:00 UTC
Wind 6 kt from the South
Temperature 11°C
Humidity 76%
Pressure 1012 hPa
Visibility 10 km or more
Scattered clouds at a height of 1500 ft
Scattered clouds at a height of 2000 ft

METAR: GMME 240500Z 19006KT 9999 SCT015 SCT020 11/07 Q1012

Time: 06:27 (05:27 UTC)

Forecast

The report was made 6 hours and 27 minutes ago, at 23:00 UTC
Forecast valid from 24 at 00 UTC to 25 at 06 UTC
Wind 6 kt from the Southwest
Visibility: 6000 m
Scattered clouds at a height of 1300 ft
Broken clouds at a height of 3000 ft
Becoming
from 24 at 08 UTC to 24 at 12 UTC
Wind 12 kt from the Southeast
Visibility 10 km or more
Broken clouds at a height of 2000 ft

TAF: GMME 232300Z 2400/2506 22006KT 6000 SCT013 BKN030 BECMG 2408/2412 14012KT 9999 BKN0013 BKN020

Weather observations and forecasts of more than 4000 airports (METAR and TAF reports).

The available stations are represented by yellow and red dots on the map.

Hover mouse over dot to see the name of the station.

Then click to see weather observations and forecasts.

To change the map : click on the green buttons with a black cross to zoom in, on the green button with a dash to zoom out, or on the green arrows for adjacent maps.


METAR-TAF: